sensor_id;sensor_type;location;lat;lon;timestamp;P1;durP1;ratioP1;P2;durP2;ratioP2
21000;SDS011;10658;50.920;12.238;2022-09-04T00:02:32;3.15;;;2.88;;
21000;SDS011;10658;50.920;12.238;2022-09-04T00:15:38;4.50;;;3.20;;
21000;SDS011;10658;50.920;12.238;2022-09-04T00:19:48;6.07;;;4.28;;
21000;SDS011;10658;50.920;12.238;2022-09-04T00:24:01;3.95;;;3.20;;
21000;SDS011;10658;50.920;12.238;2022-09-04T00:28:34;5.22;;;3.25;;
21000;SDS011;10658;50.920;12.238;2022-09-04T00:36:53;4.03;;;3.20;;
21000;SDS011;10658;50.920;12.238;2022-09-04T00:49:43;3.70;;;3.30;;
21000;SDS011;10658;50.920;12.238;2022-09-04T00:54:08;6.13;;;3.38;;
21000;SDS011;10658;50.920;12.238;2022-09-04T00:58:46;4.53;;;3.35;;
21000;SDS011;10658;50.920;12.238;2022-09-04T01:03:45;5.30;;;3.25;;
21000;SDS011;10658;50.920;12.238;2022-09-04T01:12:06;3.63;;;3.00;;
21000;SDS011;10658;50.920;12.238;2022-09-04T01:20:43;5.10;;;3.35;;
21000;SDS011;10658;50.920;12.238;2022-09-04T01:25:13;4.93;;;3.17;;
21000;SDS011;10658;50.920;12.238;2022-09-04T01:39:03;3.08;;;2.72;;
21000;SDS011;10658;50.920;12.238;2022-09-04T01:43:13;4.15;;;3.45;;
21000;SDS011;10658;50.920;12.238;2022-09-04T01:47:32;3.33;;;2.95;;
21000;SDS011;10658;50.920;12.238;2022-09-04T01:56:08;3.67;;;3.00;;
21000;SDS011;10658;50.920;12.238;2022-09-04T02:00:19;5.90;;;3.17;;
21000;SDS011;10658;50.920;12.238;2022-09-04T02:08:53;4.97;;;3.30;;
21000;SDS011;10658;50.920;12.238;2022-09-04T02:13:22;3.08;;;2.78;;
21000;SDS011;10658;50.920;12.238;2022-09-04T02:22:38;5.85;;;2.67;;
21000;SDS011;10658;50.920;12.238;2022-09-04T02:26:59;3.03;;;2.78;;
21000;SDS011;10658;50.920;12.238;2022-09-04T02:31:39;2.88;;;2.67;;
21000;SDS011;10658;50.920;12.238;2022-09-04T02:57:44;4.32;;;2.90;;
21000;SDS011;10658;50.920;12.238;2022-09-04T03:06:03;2.72;;;2.53;;
21000;SDS011;10658;50.920;12.238;2022-09-04T03:10:17;3.65;;;2.90;;
21000;SDS011;10658;50.920;12.238;2022-09-04T03:14:28;2.95;;;2.70;;
21000;SDS011;10658;50.920;12.238;2022-09-04T03:22:57;3.80;;;2.60;;
21000;SDS011;10658;50.920;12.238;2022-09-04T03:27:17;3.45;;;2.92;;
21000;SDS011;10658;50.920;12.238;2022-09-04T03:36:02;4.43;;;3.17;;
21000;SDS011;10658;50.920;12.238;2022-09-04T03:40:18;4.25;;;2.92;;
21000;SDS011;10658;50.920;12.238;2022-09-04T03:44:29;3.72;;;3.15;;
21000;SDS011;10658;50.920;12.238;2022-09-04T03:53:08;4.93;;;3.20;;
21000;SDS011;10658;50.920;12.238;2022-09-04T04:28:06;5.82;;;3.78;;
21000;SDS011;10658;50.920;12.238;2022-09-04T04:37:08;3.28;;;2.97;;
21000;SDS011;10658;50.920;12.238;2022-09-04T05:03:32;4.25;;;3.38;;
21000;SDS011;10658;50.920;12.238;2022-09-04T05:07:58;3.38;;;3.08;;
21000;SDS011;10658;50.920;12.238;2022-09-04T05:12:28;3.03;;;2.72;;
21000;SDS011;10658;50.920;12.238;2022-09-04T05:16:57;4.88;;;2.88;;
21000;SDS011;10658;50.920;12.238;2022-09-04T05:21:07;3.20;;;2.92;;
21000;SDS011;10658;50.920;12.238;2022-09-04T05:29:59;5.97;;;3.90;;
21000;SDS011;10658;50.920;12.238;2022-09-04T05:44:29;4.50;;;3.13;;
21000;SDS011;10658;50.920;12.238;2022-09-04T05:56:48;4.68;;;4.15;;
21000;SDS011;10658;50.920;12.238;2022-09-04T06:13:52;3.42;;;3.13;;
21000;SDS011;10658;50.920;12.238;2022-09-04T06:18:35;7.30;;;3.20;;
21000;SDS011;10658;50.920;12.238;2022-09-04T06:40:10;2.92;;;2.72;;
21000;SDS011;10658;50.920;12.238;2022-09-04T06:52:53;3.08;;;2.40;;
21000;SDS011;10658;50.920;12.238;2022-09-04T07:10:38;2.47;;;2.28;;
21000;SDS011;10658;50.920;12.238;2022-09-04T07:27:35;3.15;;;2.75;;
21000;SDS011;10658;50.920;12.238;2022-09-04T07:40:33;2.40;;;2.20;;
21000;SDS011;10658;50.920;12.238;2022-09-04T07:49:03;3.88;;;2.53;;
21000;SDS011;10658;50.920;12.238;2022-09-04T08:15:40;2.60;;;2.40;;
21000;SDS011;10658;50.920;12.238;2022-09-04T08:19:58;2.28;;;1.98;;
21000;SDS011;10658;50.920;12.238;2022-09-04T08:59:12;2.50;;;2.30;;
21000;SDS011;10658;50.920;12.238;2022-09-04T09:03:55;4.07;;;2.10;;
21000;SDS011;10658;50.920;12.238;2022-09-04T09:26:28;2.85;;;2.33;;
21000;SDS011;10658;50.920;12.238;2022-09-04T09:31:04;4.53;;;2.45;;
21000;SDS011;10658;50.920;12.238;2022-09-04T09:49:20;2.13;;;1.90;;
21000;SDS011;10658;50.920;12.238;2022-09-04T10:11:53;2.00;;;1.80;;
21000;SDS011;10658;50.920;12.238;2022-09-04T10:24:53;2.72;;;2.13;;
21000;SDS011;10658;50.920;12.238;2022-09-04T11:03:53;3.97;;;1.90;;
21000;SDS011;10658;50.920;12.238;2022-09-04T11:30:33;2.38;;;2.17;;
21000;SDS011;10658;50.920;12.238;2022-09-04T11:39:01;2.90;;;2.42;;
21000;SDS011;10658;50.920;12.238;2022-09-04T12:02:14;2.30;;;2.10;;
21000;SDS011;10658;50.920;12.238;2022-09-04T12:41:33;2.75;;;2.08;;
21000;SDS011;10658;50.920;12.238;2022-09-04T12:54:39;2.38;;;2.20;;
21000;SDS011;10658;50.920;12.238;2022-09-04T13:03:28;2.95;;;1.85;;
21000;SDS011;10658;50.920;12.238;2022-09-04T13:08:15;1.90;;;1.73;;
21000;SDS011;10658;50.920;12.238;2022-09-04T13:12:42;2.58;;;2.35;;
21000;SDS011;10658;50.920;12.238;2022-09-04T13:21:47;2.20;;;2.00;;
21000;SDS011;10658;50.920;12.238;2022-09-04T13:30:33;3.47;;;2.00;;
21000;SDS011;10658;50.920;12.238;2022-09-04T13:47:02;2.28;;;2.00;;
21000;SDS011;10658;50.920;12.238;2022-09-04T13:51:13;3.70;;;2.17;;
21000;SDS011;10658;50.920;12.238;2022-09-04T13:55:24;2.42;;;2.22;;
21000;SDS011;10658;50.920;12.238;2022-09-04T13:59:29;2.45;;;2.08;;
21000;SDS011;10658;50.920;12.238;2022-09-04T14:03:44;3.22;;;2.17;;
21000;SDS011;10658;50.920;12.238;2022-09-04T14:08:11;3.83;;;2.20;;
21000;SDS011;10658;50.920;12.238;2022-09-04T14:16:22;2.45;;;1.92;;
21000;SDS011;10658;50.920;12.238;2022-09-04T14:20:36;2.55;;;1.88;;
21000;SDS011;10658;50.920;12.238;2022-09-04T14:24:51;2.10;;;1.90;;
21000;SDS011;10658;50.920;12.238;2022-09-04T14:29:13;2.28;;;2.08;;
21000;SDS011;10658;50.920;12.238;2022-09-04T14:47:08;4.15;;;1.98;;
21000;SDS011;10658;50.920;12.238;2022-09-04T14:55:30;3.40;;;1.95;;
21000;SDS011;10658;50.920;12.238;2022-09-04T14:59:36;2.40;;;2.13;;
21000;SDS011;10658;50.920;12.238;2022-09-04T15:07:51;1.90;;;1.80;;
21000;SDS011;10658;50.920;12.238;2022-09-04T15:16:42;2.50;;;2.13;;
21000;SDS011;10658;50.920;12.238;2022-09-04T15:21:10;2.22;;;2.03;;
21000;SDS011;10658;50.920;12.238;2022-09-04T15:34:20;2.10;;;1.90;;
21000;SDS011;10658;50.920;12.238;2022-09-04T15:38:24;1.85;;;1.67;;
21000;SDS011;10658;50.920;12.238;2022-09-04T15:42:45;2.05;;;1.90;;
21000;SDS011;10658;50.920;12.238;2022-09-04T15:51:25;2.13;;;1.92;;
21000;SDS011;10658;50.920;12.238;2022-09-04T15:55:45;2.83;;;2.13;;
21000;SDS011;10658;50.920;12.238;2022-09-04T16:00:03;2.88;;;2.28;;
21000;SDS011;10658;50.920;12.238;2022-09-04T16:04:27;2.15;;;2.05;;
21000;SDS011;10658;50.920;12.238;2022-09-04T16:12:50;3.08;;;2.63;;
21000;SDS011;10658;50.920;12.238;2022-09-04T16:17:00;3.63;;;2.70;;
21000;SDS011;10658;50.920;12.238;2022-09-04T16:21:11;2.30;;;2.10;;
21000;SDS011;10658;50.920;12.238;2022-09-04T16:25:28;6.30;;;2.50;;
21000;SDS011;10658;50.920;12.238;2022-09-04T16:29:35;4.20;;;2.28;;
21000;SDS011;10658;50.920;12.238;2022-09-04T16:33:44;4.28;;;3.00;;
21000;SDS011;10658;50.920;12.238;2022-09-04T16:54:42;3.40;;;2.65;;
21000;SDS011;10658;50.920;12.238;2022-09-04T16:58:52;3.95;;;2.58;;
21000;SDS011;10658;50.920;12.238;2022-09-04T17:02:56;3.63;;;2.50;;
21000;SDS011;10658;50.920;12.238;2022-09-04T17:11:37;5.10;;;3.53;;
21000;SDS011;10658;50.920;12.238;2022-09-04T17:20:02;3.88;;;2.97;;
21000;SDS011;10658;50.920;12.238;2022-09-04T17:24:05;5.45;;;2.95;;
21000;SDS011;10658;50.920;12.238;2022-09-04T17:36:22;2.88;;;2.67;;
21000;SDS011;10658;50.920;12.238;2022-09-04T17:40:38;3.17;;;2.78;;
21000;SDS011;10658;50.920;12.238;2022-09-04T17:49:22;2.95;;;2.63;;
21000;SDS011;10658;50.920;12.238;2022-09-04T17:53:27;3.22;;;2.63;;
21000;SDS011;10658;50.920;12.238;2022-09-04T17:57:54;3.20;;;2.38;;
21000;SDS011;10658;50.920;12.238;2022-09-04T18:06:40;4.32;;;2.60;;
21000;SDS011;10658;50.920;12.238;2022-09-04T18:10:50;5.95;;;3.17;;
21000;SDS011;10658;50.920;12.238;2022-09-04T18:15:01;5.03;;;3.85;;
21000;SDS011;10658;50.920;12.238;2022-09-04T18:23:53;4.80;;;3.30;;
21000;SDS011;10658;50.920;12.238;2022-09-04T18:32:08;9.98;;;2.85;;
21000;SDS011;10658;50.920;12.238;2022-09-04T18:36:38;4.97;;;3.40;;
21000;SDS011;10658;50.920;12.238;2022-09-04T18:40:55;5.50;;;3.13;;
21000;SDS011;10658;50.920;12.238;2022-09-04T18:49:03;4.13;;;2.95;;
21000;SDS011;10658;50.920;12.238;2022-09-04T18:57:23;4.80;;;3.60;;
21000;SDS011;10658;50.920;12.238;2022-09-04T19:05:58;3.65;;;3.33;;
21000;SDS011;10658;50.920;12.238;2022-09-04T19:14:30;5.55;;;3.88;;
21000;SDS011;10658;50.920;12.238;2022-09-04T19:22:43;7.30;;;3.45;;
21000;SDS011;10658;50.920;12.238;2022-09-04T19:30:56;4.03;;;3.22;;
21000;SDS011;10658;50.920;12.238;2022-09-04T19:35:06;4.38;;;3.60;;
21000;SDS011;10658;50.920;12.238;2022-09-04T19:47:59;5.43;;;3.70;;
21000;SDS011;10658;50.920;12.238;2022-09-04T19:57:04;5.88;;;3.72;;
21000;SDS011;10658;50.920;12.238;2022-09-04T20:00:56;4.55;;;4.15;;
21000;SDS011;10658;50.920;12.238;2022-09-04T20:04:59;5.00;;;4.15;;
21000;SDS011;10658;50.920;12.238;2022-09-04T20:13:23;4.95;;;3.63;;
21000;SDS011;10658;50.920;12.238;2022-09-04T20:26:32;4.07;;;3.67;;
21000;SDS011;10658;50.920;12.238;2022-09-04T20:30:46;4.72;;;3.70;;
21000;SDS011;10658;50.920;12.238;2022-09-04T20:39:57;5.80;;;4.07;;
21000;SDS011;10658;50.920;12.238;2022-09-04T20:48:25;4.75;;;3.50;;
21000;SDS011;10658;50.920;12.238;2022-09-04T20:52:56;4.75;;;3.53;;
21000;SDS011;10658;50.920;12.238;2022-09-04T21:01:11;5.03;;;3.90;;
21000;SDS011;10658;50.920;12.238;2022-09-04T21:22:53;4.25;;;3.90;;
21000;SDS011;10658;50.920;12.238;2022-09-04T21:31:50;4.07;;;3.50;;
21000;SDS011;10658;50.920;12.238;2022-09-04T22:06:41;5.30;;;4.45;;
21000;SDS011;10658;50.920;12.238;2022-09-04T22:11:07;4.85;;;4.07;;
21000;SDS011;10658;50.920;12.238;2022-09-04T22:15:34;7.05;;;4.00;;
21000;SDS011;10658;50.920;12.238;2022-09-04T22:24:29;4.20;;;3.80;;
21000;SDS011;10658;50.920;12.238;2022-09-04T22:33:17;3.80;;;3.22;;
21000;SDS011;10658;50.920;12.238;2022-09-04T22:50:27;5.88;;;4.53;;
21000;SDS011;10658;50.920;12.238;2022-09-04T22:54:37;8.23;;;4.13;;
21000;SDS011;10658;50.920;12.238;2022-09-04T22:58:53;4.82;;;4.43;;
21000;SDS011;10658;50.920;12.238;2022-09-04T23:17:17;6.40;;;4.63;;
21000;SDS011;10658;50.920;12.238;2022-09-04T23:21:43;4.97;;;4.55;;
21000;SDS011;10658;50.920;12.238;2022-09-04T23:26:09;9.15;;;4.15;;
21000;SDS011;10658;50.920;12.238;2022-09-04T23:36:22;7.05;;;4.78;;
21000;SDS011;10658;50.920;12.238;2022-09-04T23:48:34;6.18;;;4.40;;
21000;SDS011;10658;50.920;12.238;2022-09-04T23:57:07;5.25;;;4.32;;
